createdAt,value
2018-09-04T11:46:25.178Z,25.35
2018-09-04T11:47:25.075Z,25.20
2018-09-04T11:48:25.081Z,25.17
2018-09-04T11:49:25.103Z,25.25
2018-09-04T11:50:25.113Z,25.18
2018-09-04T11:51:25.127Z,25.36
2018-09-04T11:52:25.224Z,25.35
2018-09-04T11:53:25.154Z,25.52
2018-09-04T11:54:25.177Z,25.77
2018-09-04T11:55:25.190Z,25.75
2018-09-04T11:56:25.207Z,25.69
2018-09-04T11:57:25.222Z,25.70
2018-09-04T11:58:25.258Z,25.64
2018-09-04T11:59:25.262Z,25.72
2018-09-04T12:00:25.277Z,25.67
2018-09-04T12:01:25.298Z,25.83
2018-09-04T12:02:25.314Z,25.69
2018-09-04T12:03:25.339Z,25.57
2018-09-04T12:04:25.370Z,25.51
2018-09-04T12:05:25.381Z,25.38
2018-09-04T12:06:25.393Z,25.24
2018-09-04T12:07:25.413Z,25.24
2018-09-04T12:08:25.538Z,25.39
2018-09-04T12:09:25.449Z,25.30
2018-09-04T12:10:25.548Z,25.38
2018-09-04T12:11:25.495Z,25.25
2018-09-04T12:12:25.685Z,25.36
2018-09-04T12:13:25.529Z,25.54
2018-09-04T12:14:25.557Z,25.65
2018-09-04T12:15:25.586Z,25.90
2018-09-04T12:16:25.597Z,25.51
2018-09-04T12:17:25.617Z,25.47
2018-09-04T12:18:25.633Z,25.15
2018-09-04T12:19:25.659Z,24.90
2018-09-04T12:20:25.674Z,24.60
2018-09-04T12:21:25.695Z,24.45
2018-09-04T12:22:25.718Z,24.64
2018-09-04T12:23:25.733Z,24.69
2018-09-04T12:24:25.750Z,25.02
2018-09-04T12:25:25.778Z,25.15
2018-09-04T12:26:25.794Z,25.17
2018-09-04T12:27:25.818Z,25.06
2018-09-04T12:28:25.832Z,25.08
2018-09-04T12:29:25.856Z,24.80
2018-09-04T12:30:25.877Z,24.85
2018-09-04T12:31:25.898Z,24.88
2018-09-04T12:32:25.917Z,24.61
2018-09-04T12:33:25.933Z,24.68
2018-09-04T12:34:25.980Z,24.57
2018-09-04T12:35:25.979Z,24.13
2018-09-04T12:36:26.008Z,23.90
2018-09-04T12:37:26.018Z,23.93
2018-09-04T12:38:26.033Z,23.88
2018-09-04T12:39:26.061Z,24.08
2018-09-04T12:40:26.078Z,24.00
2018-09-04T12:41:26.098Z,24.02
2018-09-04T12:42:26.169Z,23.83
2018-09-04T12:43:26.133Z,23.79
2018-09-04T12:44:26.235Z,23.87
2018-09-04T12:45:26.181Z,23.97
2018-09-04T12:46:26.198Z,24.05
2018-09-04T12:47:26.297Z,24.12
2018-09-04T12:48:26.256Z,24.02
2018-09-04T12:49:26.253Z,24.05
2018-09-04T12:50:26.273Z,24.21
2018-09-04T12:51:26.298Z,24.16
2018-09-04T12:52:26.318Z,24.37
2018-09-04T12:53:26.370Z,24.57
2018-09-04T12:54:26.351Z,24.53
2018-09-04T12:55:26.378Z,24.65
2018-09-04T12:56:26.400Z,24.73
2018-09-04T12:57:26.415Z,24.84
2018-09-04T12:58:26.433Z,24.85
2018-09-04T12:59:26.469Z,25.00
2018-09-04T13:00:26.480Z,25.17
2018-09-04T13:01:26.494Z,25.17
2018-09-04T13:02:26.514Z,25.27
2018-09-04T13:03:26.534Z,25.33
2018-09-04T13:04:26.548Z,25.09
2018-09-04T13:05:26.778Z,25.14
2018-09-04T13:06:26.877Z,24.90
2018-09-04T13:07:26.618Z,25.23
2018-09-04T13:08:26.633Z,25.50
2018-09-04T13:09:26.649Z,25.87
2018-09-04T13:10:26.670Z,26.29
2018-09-04T13:11:26.698Z,26.52
2018-09-04T13:12:26.718Z,26.44
2018-09-04T13:13:26.730Z,26.05
2018-09-04T13:14:26.776Z,26.17
2018-09-04T13:15:26.769Z,25.55
2018-09-04T13:16:26.793Z,25.51
2018-09-04T13:17:26.837Z,25.97
2018-09-04T13:18:26.837Z,25.73
2018-09-04T13:19:26.860Z,26.18
2018-09-04T13:20:26.875Z,26.67
2018-09-04T13:21:26.893Z,26.87
2018-09-04T13:22:26.914Z,26.48
2018-09-04T13:23:26.938Z,26.30
2018-09-04T13:24:26.961Z,26.15
2018-09-04T13:25:26.991Z,26.05
2018-09-04T13:26:27.003Z,26.37
2018-09-04T13:27:27.021Z,27.13
2018-09-04T13:28:27.046Z,27.28
2018-09-04T13:29:27.059Z,26.72
2018-09-04T13:30:27.085Z,26.36
2018-09-04T13:31:27.102Z,26.23
2018-09-04T13:32:27.129Z,25.77
2018-09-04T13:33:27.156Z,26.06
2018-09-04T13:34:27.246Z,26.36
2018-09-04T13:35:27.394Z,26.76
2018-09-04T13:36:27.447Z,26.44
2018-09-04T13:37:27.238Z,26.67
2018-09-04T13:38:27.249Z,26.88
2018-09-04T13:39:27.276Z,26.37
2018-09-04T13:40:27.290Z,26.15
2018-09-04T13:41:27.317Z,25.69
2018-09-04T13:42:27.341Z,25.45
2018-09-04T13:43:27.362Z,25.32
2018-09-04T13:44:27.374Z,25.14
2018-09-04T13:45:27.399Z,25.27
2018-09-04T13:46:27.424Z,25.15
2018-09-04T13:47:27.441Z,25.33
2018-09-04T13:48:27.543Z,25.99
2018-09-04T13:49:27.615Z,26.70
2018-09-04T13:50:27.506Z,26.91
2018-09-04T13:51:27.519Z,27.31
2018-09-04T13:52:27.545Z,27.78
2018-09-04T13:53:27.561Z,27.99
2018-09-04T13:54:27.658Z,27.85
2018-09-04T13:55:27.606Z,27.13
2018-09-04T13:56:27.629Z,26.54
2018-09-04T13:57:27.645Z,25.88
2018-09-04T13:58:27.672Z,25.73
2018-09-04T13:59:27.693Z,26.18
2018-09-04T14:00:27.714Z,26.67
2018-09-04T14:01:27.733Z,27.10
2018-09-04T14:02:27.752Z,27.14
2018-09-04T14:03:27.784Z,27.59
2018-09-04T14:04:27.892Z,27.60
2018-09-04T14:05:27.817Z,27.22
2018-09-04T14:06:28.043Z,26.45
2018-09-04T14:07:28.100Z,25.87
2018-09-04T14:08:27.894Z,25.35
2018-09-04T14:09:27.908Z,25.52
2018-09-04T14:10:27.935Z,25.69
2018-09-04T14:11:27.952Z,26.44
2018-09-04T14:12:27.974Z,27.02
2018-09-04T14:13:28.000Z,26.77
2018-09-04T14:14:28.012Z,26.89
2018-09-04T14:15:28.032Z,26.63
2018-09-04T14:16:28.069Z,26.92
2018-09-04T14:17:28.081Z,26.95
2018-09-04T14:18:28.100Z,27.07
2018-09-04T14:19:28.125Z,26.85
2018-09-04T14:20:28.141Z,26.84
2018-09-04T14:21:28.170Z,26.33
2018-09-04T14:22:28.260Z,26.12
2018-09-04T14:23:28.212Z,26.05
2018-09-04T14:24:28.228Z,25.75
2018-09-04T14:25:28.273Z,25.90
2018-09-04T14:26:28.274Z,26.17
2018-09-04T14:27:28.298Z,25.94
2018-09-04T14:28:41.912Z,25.88
2018-09-04T14:30:15.535Z,26.10
2018-09-04T14:30:28.433Z,26.09
2018-09-04T14:31:28.389Z,26.48
2018-09-04T14:32:28.406Z,26.07
2018-09-04T14:33:28.421Z,26.28
2018-09-04T14:34:28.448Z,26.48
2018-09-04T14:35:28.464Z,26.58
2018-09-04T14:36:28.717Z,26.70
2018-09-04T14:37:28.521Z,26.67
2018-09-04T14:38:28.529Z,26.66
2018-09-04T14:39:28.545Z,26.43
2018-09-04T14:40:28.566Z,26.20
2018-09-04T14:41:28.589Z,25.72
2018-09-04T14:42:28.609Z,25.02
2018-09-04T14:43:28.652Z,25.30
2018-09-04T14:44:28.661Z,25.73
2018-09-04T14:45:28.678Z,26.62
2018-09-04T14:46:28.693Z,27.25
2018-09-04T14:47:28.718Z,27.57
2018-09-04T14:48:28.739Z,27.59
2018-09-04T14:49:28.760Z,27.36
2018-09-04T14:50:28.786Z,26.21
2018-09-04T14:51:28.804Z,25.51
2018-09-04T14:52:28.820Z,25.99
2018-09-04T14:53:28.841Z,25.94
2018-09-04T14:54:28.875Z,26.05
2018-09-04T14:55:28.893Z,26.62
2018-09-04T14:56:28.907Z,27.25
2018-09-04T14:57:28.929Z,28.04
2018-09-04T14:58:28.958Z,27.57
2018-09-04T14:59:28.974Z,27.24
2018-09-04T15:00:28.993Z,27.29
2018-09-04T15:01:29.037Z,27.04
2018-09-04T15:02:29.044Z,27.24
2018-09-04T15:03:29.097Z,27.50
2018-09-04T15:04:29.077Z,27.65
2018-09-04T15:05:29.109Z,27.74
2018-09-04T15:06:29.142Z,27.47
2018-09-04T15:07:29.149Z,26.88
2018-09-04T15:08:29.163Z,26.62
2018-09-04T15:09:29.398Z,26.18
2018-09-04T15:10:29.213Z,25.97
2018-09-04T15:11:29.284Z,26.26
2018-09-04T15:12:29.260Z,26.73
2018-09-04T15:13:29.277Z,26.70
2018-09-04T15:14:29.359Z,27.21
2018-09-04T15:15:29.446Z,27.04
2018-09-04T15:16:29.342Z,27.18
2018-09-04T15:17:29.357Z,26.58
2018-09-04T15:18:29.436Z,26.57
2018-09-04T15:19:29.425Z,26.75
2018-09-04T15:20:29.420Z,26.51
2018-09-04T15:21:30.800Z,25.87
2018-09-04T15:22:29.469Z,25.67
2018-09-04T15:23:29.488Z,25.90
2018-09-04T15:24:29.508Z,25.62
2018-09-04T15:25:29.667Z,25.50
2018-09-04T15:26:29.555Z,25.62
2018-09-04T15:28:29.646Z,24.84
2018-09-04T15:29:29.621Z,24.85
2018-09-04T15:30:29.637Z,24.87
2018-09-04T15:31:29.745Z,24.52
2018-09-04T15:32:29.682Z,24.31
2018-09-04T15:33:29.708Z,24.40
2018-09-04T15:34:29.721Z,24.43
2018-09-04T15:35:29.744Z,24.37
2018-09-04T15:36:29.769Z,24.22
2018-09-04T15:37:29.790Z,24.37
2018-09-04T15:38:29.809Z,24.47
2018-09-04T15:40:29.849Z,24.57
2018-09-04T15:41:29.867Z,24.65
2018-09-04T15:42:29.932Z,24.84
2018-09-04T15:43:29.909Z,24.84
2018-09-04T15:44:29.929Z,25.13
2018-09-04T15:45:29.944Z,25.05
2018-09-04T15:46:29.965Z,25.39
2018-09-04T15:47:29.985Z,25.87
2018-09-04T15:48:30.009Z,25.87
2018-09-04T15:49:30.119Z,25.90
2018-09-04T15:50:30.049Z,26.12
2018-09-04T15:51:30.073Z,26.51
2018-09-04T15:52:30.292Z,26.06
2018-09-04T15:53:30.105Z,25.14
2018-09-04T15:54:30.128Z,24.65
2018-09-04T15:55:30.148Z,24.46
2018-09-04T15:56:30.197Z,24.43
2018-09-04T15:57:30.190Z,24.67
2018-09-04T15:58:30.209Z,24.91
2018-09-04T15:59:30.228Z,25.09
2018-09-04T16:00:30.248Z,25.46
2018-09-04T16:01:30.320Z,25.75
2018-09-04T16:02:30.300Z,25.55
2018-09-04T16:03:30.312Z,25.72
2018-09-04T16:04:30.332Z,25.10
2018-09-04T16:05:30.350Z,24.83
2018-09-04T16:06:30.367Z,24.87
2018-09-04T16:07:30.424Z,24.77
2018-09-04T16:08:30.412Z,24.53
2018-09-04T16:09:30.436Z,24.42
2018-09-04T16:10:30.460Z,24.35
2018-09-04T16:11:30.476Z,23.93
2018-09-04T16:12:30.492Z,24.12
2018-09-04T16:13:30.508Z,24.58
2018-09-04T16:14:30.528Z,24.50
2018-09-04T16:15:30.551Z,24.52
2018-09-04T16:16:30.573Z,25.03
2018-09-04T16:17:30.603Z,25.18
2018-09-04T16:18:30.615Z,25.35
2018-09-04T16:19:30.635Z,25.51
2018-09-04T16:20:30.652Z,25.00
2018-09-04T16:21:30.676Z,24.93
2018-09-04T16:22:30.692Z,25.09
2018-09-04T16:23:30.711Z,25.39
2018-09-04T16:24:30.782Z,25.47
2018-09-04T16:25:30.757Z,25.05
2018-09-04T16:26:30.794Z,24.64
2018-09-04T16:27:30.795Z,24.57
2018-09-04T16:28:30.816Z,24.60
2018-09-04T16:29:30.834Z,24.27
2018-09-04T16:30:30.851Z,23.87
2018-09-04T16:31:30.871Z,23.79
2018-09-04T16:32:30.979Z,23.88
2018-09-04T16:33:30.911Z,23.85
2018-09-04T16:34:31.080Z,23.83
2018-09-04T16:35:30.969Z,23.48
2018-09-04T16:36:30.980Z,23.36
2018-09-04T16:37:30.996Z,23.28
2018-09-04T16:38:31.032Z,23.31
2018-09-04T16:39:31.041Z,23.35
2018-09-04T16:40:31.047Z,23.39
2018-09-04T16:41:31.135Z,23.27
2018-09-04T16:42:31.084Z,23.42
2018-09-04T16:43:31.103Z,23.50
2018-09-04T16:44:31.169Z,23.39
2018-09-04T16:45:31.148Z,23.51
2018-09-04T16:46:31.159Z,23.38
2018-09-04T16:47:31.183Z,23.58
2018-09-04T16:48:31.207Z,23.46
2018-09-04T16:49:31.219Z,23.23
2018-09-04T16:50:31.312Z,23.01
2018-09-04T16:51:31.260Z,22.92
2018-09-04T16:52:31.284Z,22.94
2018-09-04T16:53:31.299Z,22.98
2018-09-04T16:54:31.315Z,22.65
2018-09-04T16:55:31.336Z,22.67
2018-09-04T16:56:31.386Z,22.73
2018-09-04T16:57:31.425Z,22.65
2018-09-04T16:58:31.398Z,22.65
2018-09-04T16:59:31.411Z,22.65
2018-09-04T17:00:31.431Z,22.72
2018-09-04T17:01:31.451Z,22.49
2018-09-04T17:02:31.467Z,22.54
2018-09-04T17:03:31.491Z,22.37
2018-09-04T17:04:31.503Z,22.42
2018-09-04T17:05:31.524Z,22.39
2018-09-04T17:06:31.539Z,22.35
2018-09-04T17:07:31.571Z,22.46
2018-09-04T17:08:31.583Z,22.51
2018-09-04T17:09:31.595Z,22.46
2018-09-04T17:10:31.619Z,22.57
2018-09-04T17:11:31.641Z,22.68
2018-09-04T17:12:31.650Z,22.80
2018-09-04T17:13:31.676Z,22.80
2018-09-04T17:14:31.691Z,22.94
2018-09-04T17:15:31.775Z,22.91
2018-09-04T17:16:31.726Z,22.95
2018-09-04T17:17:31.743Z,22.92
2018-09-04T17:18:31.859Z,22.72
2018-09-04T17:19:31.775Z,22.57
2018-09-04T17:20:31.795Z,22.55
2018-09-04T17:21:31.819Z,22.51
2018-09-04T17:22:32.131Z,22.49
2018-09-04T17:23:32.054Z,22.54
2018-09-04T17:24:31.867Z,22.28
2018-09-04T17:25:31.886Z,22.28
2018-09-04T17:26:31.902Z,22.51
2018-09-04T17:27:31.927Z,22.52
2018-09-04T17:28:31.946Z,22.57
2018-09-04T17:29:31.957Z,22.52
2018-09-04T17:30:31.990Z,22.51
2018-09-04T17:31:31.999Z,22.54
2018-09-04T17:32:32.010Z,22.37
2018-09-04T17:33:32.039Z,22.54
2018-09-04T17:34:32.050Z,22.58
2018-09-04T17:35:32.071Z,22.83
2018-09-04T17:36:32.094Z,22.80
2018-09-04T17:37:32.111Z,22.62
2018-09-04T17:38:32.126Z,22.76
2018-09-04T17:39:32.143Z,22.83
2018-09-04T17:40:32.199Z,22.72
2018-09-04T17:41:32.182Z,22.79
2018-09-04T17:42:32.199Z,22.75
2018-09-04T17:43:32.218Z,22.57
2018-09-04T17:44:32.234Z,22.52
2018-09-04T17:45:32.256Z,22.36
2018-09-04T17:46:32.295Z,22.20
2018-09-04T17:47:32.325Z,21.98
2018-09-04T17:48:32.311Z,21.90
2018-09-04T17:49:32.331Z,21.86
2018-09-04T17:50:32.350Z,21.72
2018-09-04T17:51:32.370Z,21.80
2018-09-04T17:52:32.391Z,21.86
2018-09-04T17:53:32.402Z,21.62
2018-09-04T17:54:32.422Z,21.67
2018-09-04T17:55:32.430Z,21.59
2018-09-04T17:56:32.453Z,21.64
2018-09-04T17:57:32.474Z,21.68
2018-09-04T17:58:32.486Z,21.64
2018-09-04T17:59:32.508Z,21.59
2018-09-04T18:00:32.567Z,21.56
2018-09-04T18:01:32.536Z,21.65
2018-09-04T18:02:32.562Z,21.74
2018-09-04T18:03:32.592Z,21.86
2018-09-04T18:04:32.641Z,22.02
2018-09-04T18:05:32.610Z,21.80
2018-09-04T18:06:32.659Z,21.69
2018-09-04T18:07:32.650Z,21.58
2018-09-04T18:08:32.661Z,21.44
2018-09-04T18:09:32.681Z,21.53
2018-09-04T18:10:32.755Z,21.52
2018-09-04T18:11:32.722Z,21.53
2018-09-04T18:12:32.740Z,21.40
2018-09-04T18:13:32.761Z,21.35
2018-09-04T18:14:32.775Z,21.35
2018-09-04T18:15:32.793Z,21.21
2018-09-04T18:16:32.805Z,21.14
2018-09-04T18:17:32.827Z,21.10
2018-09-04T18:18:32.842Z,21.27
2018-09-04T18:19:32.866Z,21.12
2018-09-04T18:20:32.878Z,21.31
2018-09-04T18:21:33.105Z,21.14
2018-09-04T18:22:33.117Z,21.09
2018-09-04T18:23:32.930Z,21.13
2018-09-04T18:24:32.946Z,21.12
2018-09-04T18:25:32.965Z,21.21
2018-09-04T18:26:32.982Z,21.19
2018-09-04T18:27:33.005Z,21.27
2018-09-04T18:28:33.034Z,21.32
2018-09-04T18:29:33.045Z,21.40
2018-09-04T18:30:33.049Z,21.38
2018-09-04T18:31:33.070Z,21.37
2018-09-04T18:32:33.082Z,21.34
2018-09-04T18:33:33.107Z,21.37
2018-09-04T18:34:33.181Z,21.43
2018-09-04T18:35:33.138Z,21.37
2018-09-04T18:36:33.155Z,21.46
2018-09-04T18:37:33.177Z,21.34
2018-09-04T18:38:33.196Z,21.31
2018-09-04T18:39:33.210Z,21.29
2018-09-04T18:40:33.219Z,21.31
2018-09-04T18:41:33.246Z,21.29
2018-09-04T18:42:33.261Z,21.29
2018-09-04T18:43:33.282Z,21.21
2018-09-04T18:44:33.298Z,21.24
2018-09-04T18:45:33.314Z,21.21
2018-09-04T18:46:33.333Z,21.25
2018-09-04T18:47:33.346Z,21.13
2018-09-04T18:48:33.390Z,21.06
2018-09-04T18:49:33.383Z,20.99
2018-09-04T18:50:33.406Z,21.03
2018-09-04T18:51:33.420Z,21.04
2018-09-04T18:52:33.450Z,21.04
2018-09-04T18:53:33.508Z,21.04
2018-09-04T18:54:33.474Z,21.09
2018-09-04T18:55:33.492Z,21.12
2018-09-04T18:56:33.504Z,21.09
2018-09-04T18:57:33.528Z,21.07
2018-09-04T18:58:33.543Z,21.07
2018-09-04T18:59:33.699Z,21.12
2018-09-04T19:00:33.583Z,21.16
2018-09-04T19:01:33.604Z,21.14
2018-09-04T19:02:33.611Z,21.24
2018-09-04T19:03:33.629Z,21.17
2018-09-04T19:04:33.647Z,21.14
2018-09-04T19:05:33.708Z,21.14
2018-09-04T19:06:33.680Z,21.22
2018-09-04T19:07:33.698Z,21.21
2018-09-04T19:08:33.711Z,21.25
2018-09-04T19:09:33.735Z,21.25
2018-09-04T19:10:33.751Z,21.35
2018-09-04T19:11:33.787Z,21.29
2018-09-04T19:12:33.782Z,21.32
2018-09-04T19:13:33.805Z,21.29
2018-09-04T19:14:33.823Z,21.24
2018-09-04T19:15:33.844Z,21.21
2018-09-04T19:16:33.856Z,21.14
2018-09-04T19:17:33.871Z,21.17
2018-09-04T19:18:33.891Z,21.16
2018-09-04T19:19:33.913Z,21.12
2018-09-04T19:20:33.931Z,20.97
2018-09-04T19:21:33.944Z,21.03
2018-09-04T19:22:33.968Z,21.12
2018-09-04T19:23:33.980Z,21.04
2018-09-04T19:24:33.995Z,21.03
2018-09-04T19:25:34.015Z,21.14
2018-09-04T19:26:34.036Z,21.01
2018-09-04T19:27:34.056Z,21.14
2018-09-04T19:28:34.072Z,20.98
2018-09-04T19:29:34.088Z,20.99
2018-09-04T19:30:34.108Z,21.04
2018-09-04T19:31:34.122Z,21.10
2018-09-04T19:32:34.143Z,21.14
2018-09-04T19:33:34.151Z,21.25
2018-09-04T19:34:34.176Z,21.31
2018-09-04T19:35:34.192Z,21.37
2018-09-04T19:36:34.206Z,21.40
2018-09-04T19:37:34.257Z,21.40
2018-09-04T19:38:34.252Z,21.34
2018-09-04T19:39:34.285Z,21.52
2018-09-04T19:40:34.280Z,21.50
2018-09-04T19:41:34.296Z,21.46
2018-09-04T19:42:34.362Z,21.44
2018-09-04T19:43:34.326Z,21.37
2018-09-04T19:44:34.347Z,21.40
2018-09-04T19:45:34.368Z,21.46
2018-09-04T19:46:34.384Z,21.47
2018-09-04T19:47:34.399Z,21.38
2018-09-04T19:48:34.415Z,21.49
2018-09-04T19:49:34.451Z,21.37
2018-09-04T19:50:34.455Z,21.40
2018-09-04T19:51:34.471Z,21.37
2018-09-04T19:52:34.491Z,21.38
2018-09-04T19:53:34.508Z,21.42
2018-09-04T19:54:34.530Z,21.47
2018-09-04T19:55:34.549Z,21.49
2018-09-04T19:56:34.560Z,21.47
2018-09-04T19:57:34.588Z,21.49
2018-09-04T19:58:34.599Z,21.35
2018-09-04T19:59:34.632Z,21.35
2018-09-04T20:00:34.635Z,21.32
2018-09-04T20:01:34.651Z,21.32
2018-09-04T20:02:34.667Z,21.34
2018-09-04T20:03:34.688Z,21.32
2018-09-04T20:04:34.704Z,21.29
2018-09-04T20:05:34.724Z,21.38
2018-09-04T20:06:34.735Z,21.27
2018-09-04T20:07:34.756Z,21.24
2018-09-04T20:08:34.779Z,21.24
2018-09-04T20:09:34.792Z,21.16
2018-09-04T20:10:34.808Z,21.12
2018-09-04T20:11:34.827Z,21.16
2018-09-04T20:12:34.844Z,21.13
2018-09-04T20:13:34.936Z,21.16
2018-09-04T20:14:34.880Z,21.10
2018-09-04T20:15:34.900Z,21.10
2018-09-04T20:16:34.920Z,21.10
2018-09-04T20:17:34.932Z,21.07
2018-09-04T20:18:34.957Z,21.14
2018-09-04T20:19:34.976Z,21.13
2018-09-04T20:20:34.996Z,21.14
2018-09-04T20:21:35.061Z,21.10
2018-09-04T20:22:35.020Z,21.16
2018-09-04T20:23:35.043Z,21.13
2018-09-04T20:24:35.062Z,21.13
2018-09-04T20:25:35.080Z,21.16
2018-09-04T20:26:35.091Z,21.10
2018-09-04T20:27:35.116Z,20.98
2018-09-04T20:28:35.132Z,21.13
2018-09-04T20:29:35.387Z,21.09
2018-09-04T20:30:35.371Z,21.07
2018-09-04T20:31:35.178Z,21.10
2018-09-04T20:32:35.241Z,21.14
2018-09-04T20:33:35.224Z,21.17
2018-09-04T20:34:35.239Z,21.24
2018-09-04T20:35:35.259Z,21.25
2018-09-04T20:36:35.276Z,21.14
2018-09-04T20:37:35.291Z,20.98
2018-09-04T20:38:35.409Z,21.09
2018-09-04T20:39:35.328Z,20.98
2018-09-04T20:40:35.345Z,20.99
2018-09-04T20:41:35.561Z,20.85
2018-09-04T20:42:35.576Z,20.88
2018-09-04T20:43:35.597Z,20.85
2018-09-04T20:44:35.612Z,20.85
2018-09-04T20:45:35.433Z,20.72
2018-09-04T20:46:35.444Z,20.77
2018-09-04T20:47:35.465Z,20.66
2018-09-04T20:48:35.484Z,20.70
2018-09-04T20:49:35.511Z,20.67
2018-09-04T20:50:35.521Z,20.69
2018-09-04T20:51:35.540Z,20.66
2018-09-04T20:52:35.553Z,20.73
2018-09-04T20:53:35.576Z,20.69
2018-09-04T20:54:35.589Z,20.61
2018-09-04T20:55:35.671Z,20.62
2018-09-04T20:56:35.623Z,20.67
2018-09-04T20:57:35.646Z,20.67
2018-09-04T20:58:35.654Z,20.67
2018-09-04T20:59:35.677Z,20.73
2018-09-04T21:00:35.697Z,20.67
2018-09-04T21:01:35.798Z,20.66
2018-09-04T21:02:35.733Z,20.61
2018-09-04T21:03:35.754Z,20.66
2018-09-04T21:04:35.766Z,20.66
2018-09-04T21:05:35.792Z,20.70
2018-09-04T21:06:35.805Z,20.73
2018-09-04T21:07:35.881Z,20.76
2018-09-04T21:08:35.828Z,20.82
2018-09-04T21:09:35.849Z,20.79
2018-09-04T21:10:35.869Z,20.82
2018-09-04T21:11:35.889Z,20.84
2018-09-04T21:12:35.902Z,20.85
2018-09-04T21:13:35.925Z,20.85
2018-09-04T21:14:35.943Z,20.87
2018-09-04T21:15:35.961Z,20.84
2018-09-04T21:16:35.978Z,20.84
2018-09-04T21:17:35.993Z,20.92
2018-09-04T21:18:36.005Z,21.03
2018-09-04T21:19:36.022Z,20.95
2018-09-04T21:20:36.044Z,20.97
2018-09-04T21:21:36.061Z,20.97
2018-09-04T21:22:36.078Z,21.03
2018-09-04T21:23:36.097Z,20.95
2018-09-04T21:24:36.118Z,20.91
2018-09-04T21:25:36.132Z,20.97
2018-09-04T21:26:36.189Z,20.92
2018-09-04T21:27:36.165Z,20.94
2018-09-04T21:28:36.186Z,20.98
2018-09-04T21:29:36.204Z,20.99
2018-09-04T21:30:36.229Z,20.97
2018-09-04T21:31:36.237Z,20.95
2018-09-04T21:32:36.262Z,20.94
2018-09-04T21:33:36.274Z,20.97
2018-09-04T21:34:36.293Z,20.94
2018-09-04T21:35:36.309Z,20.99
2018-09-04T21:36:36.333Z,20.98
2018-09-04T21:37:36.346Z,20.87
2018-09-04T21:38:36.366Z,20.85
2018-09-04T21:39:36.381Z,20.92
2018-09-04T21:40:36.398Z,20.87
2018-09-04T21:41:36.415Z,20.87
2018-09-04T21:42:36.439Z,20.88
2018-09-04T21:43:36.449Z,20.98
2018-09-04T21:44:36.465Z,20.99
2018-09-04T21:45:36.482Z,20.95
2018-09-04T21:46:36.503Z,20.97
2018-09-04T21:47:36.524Z,21.01
2018-09-04T21:48:36.534Z,20.97
2018-09-04T21:49:36.558Z,21.01
2018-09-04T21:50:36.594Z,20.92
2018-09-04T21:51:36.594Z,20.94
2018-09-04T21:52:36.604Z,20.87
2018-09-04T21:53:36.626Z,20.87
2018-09-04T21:54:36.645Z,20.82
2018-09-04T21:55:36.672Z,20.87
2018-09-04T21:56:36.682Z,20.84
2018-09-04T21:57:36.702Z,20.74
2018-09-04T21:58:36.715Z,20.70
2018-09-04T21:59:36.734Z,20.76
2018-09-04T22:00:36.754Z,20.66
2018-09-04T22:01:36.765Z,20.72
2018-09-04T22:02:36.787Z,20.72
2018-09-04T22:03:36.807Z,20.64
2018-09-04T22:04:36.830Z,20.64
2018-09-04T22:05:36.843Z,20.70
2018-09-04T22:06:36.854Z,20.70
2018-09-04T22:07:36.916Z,20.64
2018-09-04T22:08:37.091Z,20.67
2018-09-04T22:09:36.910Z,20.72
2018-09-04T22:10:36.926Z,20.69
2018-09-04T22:11:36.942Z,20.66
2018-09-04T22:12:36.959Z,20.67
2018-09-04T22:13:36.983Z,20.64
2018-09-04T22:14:36.999Z,20.72
2018-09-04T22:15:37.120Z,20.59
2018-09-04T22:16:37.027Z,20.59
2018-09-04T22:17:37.047Z,20.67
2018-09-04T22:18:37.066Z,20.69
2018-09-04T22:19:37.083Z,20.73
2018-09-04T22:20:37.303Z,20.77
2018-09-04T22:21:37.118Z,20.70
2018-09-04T22:22:37.133Z,20.69
2018-09-04T22:23:37.150Z,20.79
2018-09-04T22:24:37.175Z,20.72
2018-09-04T22:25:37.187Z,20.64
2018-09-04T22:26:37.210Z,20.74
2018-09-04T22:27:37.227Z,20.67
2018-09-04T22:28:37.239Z,20.67
2018-09-04T22:29:37.263Z,20.67
2018-09-04T22:30:37.279Z,20.73
2018-09-04T22:31:37.291Z,20.66
2018-09-04T22:32:37.312Z,20.67
2018-09-04T22:33:37.332Z,20.66
2018-09-04T22:34:37.351Z,20.61
2018-09-04T22:35:37.363Z,20.57
2018-09-04T22:36:37.379Z,20.76
2018-09-04T22:37:37.391Z,20.58
2018-09-04T22:38:37.428Z,20.57
2018-09-04T22:39:37.435Z,20.67
2018-09-04T22:40:37.484Z,20.55
2018-09-04T22:41:37.467Z,20.62
2018-09-04T22:42:37.487Z,20.61
2018-09-04T22:43:37.499Z,20.59
2018-09-04T22:44:37.523Z,20.58
2018-09-04T22:45:37.536Z,20.48
2018-09-04T22:46:37.701Z,20.51
2018-09-04T22:47:37.576Z,20.54
2018-09-04T22:48:37.587Z,20.48
2018-09-04T22:49:37.607Z,20.52
2018-09-04T22:50:37.624Z,20.51
2018-09-04T22:51:37.640Z,20.54
2018-09-04T22:52:37.667Z,20.54
2018-09-04T22:53:37.680Z,20.57
2018-09-04T22:54:37.692Z,20.57
2018-09-04T22:55:37.715Z,20.61
2018-09-04T22:56:37.937Z,20.59
2018-09-04T22:57:37.747Z,20.64
2018-09-04T22:58:37.768Z,20.62
2018-09-04T22:59:37.797Z,20.66
2018-09-04T23:00:37.799Z,20.66
2018-09-04T23:01:37.828Z,20.58
2018-09-04T23:02:38.036Z,20.58
2018-09-04T23:03:37.856Z,20.66
2018-09-04T23:04:37.872Z,20.62
2018-09-04T23:05:37.887Z,20.52
2018-09-04T23:06:37.923Z,20.61
2018-09-04T23:07:37.934Z,20.47
2018-09-04T23:08:38.140Z,20.38
2018-09-04T23:09:37.966Z,20.50
2018-09-04T23:10:37.987Z,20.36
2018-09-04T23:11:38.011Z,20.42
2018-09-04T23:12:38.004Z,20.35
2018-09-04T23:13:38.024Z,20.39
2018-09-04T23:14:38.044Z,20.41
2018-09-04T23:15:38.060Z,20.48
2018-09-04T23:16:38.081Z,20.43
2018-09-04T23:17:38.096Z,20.33
2018-09-04T23:18:38.111Z,20.23
2018-09-04T23:19:38.136Z,20.23
2018-09-04T23:20:38.152Z,20.21
2018-09-04T23:21:38.169Z,20.31
2018-09-04T23:22:38.184Z,20.17
2018-09-04T23:23:38.294Z,20.18
2018-09-04T23:24:38.224Z,20.13
2018-09-04T23:25:38.236Z,20.05
2018-09-04T23:26:38.455Z,20.10
2018-09-04T23:27:38.278Z,20.10
2018-09-04T23:28:38.293Z,20.06
2018-09-04T23:29:38.312Z,20.05
2018-09-04T23:30:38.328Z,20.06
2018-09-04T23:31:38.339Z,20.08
2018-09-04T23:32:38.363Z,19.99
2018-09-04T23:33:38.379Z,20.05
2018-09-04T23:34:38.400Z,19.94
2018-09-04T23:35:38.417Z,19.95
2018-09-04T23:36:38.439Z,20.02
2018-09-04T23:37:38.448Z,20.13
2018-09-04T23:38:38.664Z,20.10
2018-09-04T23:39:38.484Z,20.08
2018-09-04T23:40:38.503Z,20.06
2018-09-04T23:41:38.580Z,20.08
2018-09-04T23:42:38.580Z,20.11
2018-09-04T23:43:38.556Z,20.16
2018-09-04T23:44:38.772Z,20.20
2018-09-04T23:45:38.590Z,20.32
2018-09-04T23:46:38.609Z,20.18
2018-09-04T23:47:38.625Z,20.35
2018-09-04T23:48:38.667Z,20.26
2018-09-04T23:49:38.660Z,20.31
2018-09-04T23:50:38.880Z,20.31
2018-09-04T23:51:38.693Z,20.24
2018-09-04T23:52:38.708Z,20.26
2018-09-04T23:53:38.725Z,20.29
2018-09-04T23:54:38.748Z,20.26
2018-09-04T23:55:39.044Z,20.33
2018-09-04T23:56:39.181Z,20.13
2018-09-04T23:57:38.799Z,20.11
2018-09-04T23:58:38.820Z,20.21
2018-09-04T23:59:38.839Z,20.21
